createdAt,value
2016-09-13T00:00:02.015Z,17.64
2016-09-13T00:01:02.709Z,17.76
2016-09-13T00:02:02.216Z,17.64
2016-09-13T00:03:02.125Z,17.59
2016-09-13T00:04:03.462Z,17.46
2016-09-13T00:05:03.180Z,17.46
2016-09-13T00:06:01.671Z,17.59
2016-09-13T00:07:01.882Z,17.68
2016-09-13T00:08:03.059Z,17.6
2016-09-13T00:09:02.667Z,17.51
2016-09-13T00:10:01.775Z,17.45
2016-09-13T00:11:02.922Z,17.45
2016-09-13T00:12:02.744Z,17.19
2016-09-13T00:13:03.496Z,16.93
2016-09-13T00:14:01.542Z,16.99
2016-09-13T00:15:03.033Z,17.11
2016-09-13T00:16:02.670Z,17.16
2016-09-13T00:17:01.974Z,17.02
2016-09-13T00:18:02.586Z,16.94
2016-09-13T00:19:02.504Z,17.05
2016-09-13T00:20:02.263Z,17.14
2016-09-13T00:21:02.214Z,17.23
2016-09-13T00:22:02.187Z,17.08
2016-09-13T00:23:02.621Z,16.99
2016-09-13T00:24:01.895Z,17.11
2016-09-13T00:25:02.387Z,17.22
2016-09-13T00:26:02.419Z,17.33
2016-09-13T00:27:03.351Z,17.15
2016-09-13T00:28:03.056Z,17.09
2016-09-13T00:29:02.626Z,17.06
2016-09-13T00:30:02.948Z,17.19
2016-09-13T00:31:02.185Z,17.2
2016-09-13T00:32:03.706Z,17.16
2016-09-13T00:33:02.909Z,17.11
2016-09-13T00:34:02.496Z,17.12
2016-09-13T00:35:02.530Z,17.14
2016-09-13T00:36:02.746Z,17.2
2016-09-13T00:37:03.549Z,17.29
2016-09-13T00:38:02.893Z,17.27
2016-09-13T00:39:02.927Z,17.22
2016-09-13T00:40:04.471Z,17.26
2016-09-13T00:41:03.302Z,17.27
2016-09-13T00:42:03.900Z,17.14
2016-09-13T00:43:02.827Z,17.22
2016-09-13T00:44:02.897Z,17.2
2016-09-13T00:45:03.673Z,17.24
2016-09-13T00:46:02.282Z,17.19
2016-09-13T00:47:04.263Z,16.66
2016-09-13T00:48:03.514Z,16.43
2016-09-13T00:49:02.806Z,16.47
2016-09-13T00:50:04.038Z,16.53
2016-09-13T00:51:04.619Z,16.57
2016-09-13T00:52:03.248Z,16.69
2016-09-13T00:53:02.921Z,16.68
2016-09-13T00:54:03.075Z,16.86
2016-09-13T00:55:02.926Z,16.86
2016-09-13T00:56:02.749Z,16.87
2016-09-13T00:57:03.095Z,16.96
2016-09-13T00:58:03.057Z,17.01
2016-09-13T00:59:03.910Z,16.97
2016-09-13T01:00:03.270Z,16.99
2016-09-13T01:01:04.049Z,16.93
2016-09-13T01:02:05.311Z,16.93
2016-09-13T01:03:03.478Z,16.76
2016-09-13T01:04:02.565Z,16.75
2016-09-13T01:05:03.811Z,16.74
2016-09-13T01:06:02.388Z,16.68
2016-09-13T01:07:03.230Z,16.76
2016-09-13T01:08:03.004Z,16.9
2016-09-13T01:09:03.937Z,16.83
2016-09-13T01:10:04.292Z,16.93
2016-09-13T01:11:03.720Z,16.81
2016-09-13T01:12:02.904Z,16.79
2016-09-13T01:13:03.395Z,16.89
2016-09-13T01:14:03.967Z,16.9
2016-09-13T01:15:03.076Z,16.87
2016-09-13T01:16:04.435Z,16.89
2016-09-13T01:17:03.206Z,16.86
2016-09-13T01:18:04.042Z,16.72
2016-09-13T01:19:05.173Z,16.56
2016-09-13T01:20:03.721Z,16.5
2016-09-13T01:21:03.818Z,16.47
2016-09-13T01:22:03.466Z,16.41
2016-09-13T01:23:03.458Z,16.47
2016-09-13T01:24:03.280Z,16.32
2016-09-13T01:25:03.821Z,16.39
2016-09-13T01:26:04.974Z,16.26
2016-09-13T01:27:04.881Z,16.29
2016-09-13T01:28:04.957Z,16.43
2016-09-13T01:29:03.190Z,16.43
2016-09-13T01:30:03.950Z,16.43
2016-09-13T01:31:05.303Z,16.56
2016-09-13T01:32:05.072Z,16.57
2016-09-13T01:33:04.076Z,16.56
2016-09-13T01:34:04.060Z,16.65
2016-09-13T01:35:04.648Z,16.69
2016-09-13T01:36:03.954Z,16.64
2016-09-13T01:37:04.814Z,16.71
2016-09-13T01:38:04.474Z,16.66
2016-09-13T01:39:03.983Z,16.65
2016-09-13T01:40:03.453Z,16.65
2016-09-13T01:41:04.285Z,16.74
2016-09-13T01:42:03.994Z,16.58
2016-09-13T01:43:04.503Z,16.39
2016-09-13T01:44:04.636Z,16.38
2016-09-13T01:45:04.580Z,16.46
2016-09-13T01:46:03.887Z,16.5
2016-09-13T01:47:04.184Z,16.42
2016-09-13T01:48:04.572Z,16.49
2016-09-13T01:49:05.643Z,16.41
2016-09-13T01:50:04.450Z,16.54
2016-09-13T01:51:04.934Z,16.5
2016-09-13T01:52:03.899Z,16.42
2016-09-13T01:53:04.991Z,16.42
2016-09-13T01:54:03.518Z,16.46
2016-09-13T01:55:03.846Z,16.51
2016-09-13T01:56:06.113Z,16.46
2016-09-13T01:57:04.575Z,16.5
2016-09-13T01:58:05.042Z,16.56
2016-09-13T01:59:04.220Z,16.54
2016-09-13T02:00:04.453Z,16.43
2016-09-13T02:01:04.667Z,16.43
2016-09-13T02:02:04.556Z,16.36
2016-09-13T02:03:05.862Z,16.35
2016-09-13T02:04:04.317Z,16.38
2016-09-13T02:05:05.897Z,16.33
2016-09-13T02:06:04.867Z,16.35
2016-09-13T02:07:04.945Z,16.35
2016-09-13T02:08:06.776Z,16.33
2016-09-13T02:09:04.498Z,16.33
2016-09-13T02:10:04.145Z,16.36
2016-09-13T02:11:05.769Z,16.38
2016-09-13T02:12:04.819Z,16.42
2016-09-13T02:13:04.252Z,16.47
2016-09-13T02:14:05.364Z,16.46
2016-09-13T02:15:05.098Z,16.43
2016-09-13T02:16:05.815Z,16.53
2016-09-13T02:17:06.023Z,16.51
2016-09-13T02:18:05.332Z,16.46
2016-09-13T02:19:04.718Z,16.47
2016-09-13T02:20:05.319Z,16.43
2016-09-13T02:21:04.235Z,16.54
2016-09-13T02:22:06.018Z,16.51
2016-09-13T02:23:05.598Z,16.5
2016-09-13T02:24:04.305Z,16.54
2016-09-13T02:25:07.798Z,16.41
2016-09-13T02:26:04.930Z,16.46
2016-09-13T02:27:06.325Z,16.49
2016-09-13T02:28:05.687Z,16.47
2016-09-13T02:29:04.774Z,16.33
2016-09-13T02:30:05.811Z,16.38
2016-09-13T02:31:06.923Z,16.36
2016-09-13T02:32:06.230Z,16.38
2016-09-13T02:33:04.967Z,16.26
2016-09-13T02:34:04.908Z,16.32
2016-09-13T02:35:04.529Z,16.36
2016-09-13T02:36:05.478Z,16.38
2016-09-13T02:37:04.808Z,16.31
2016-09-13T02:38:06.323Z,16.36
2016-09-13T02:39:05.940Z,16.36
2016-09-13T02:40:05.582Z,16.38
2016-09-13T02:41:06.474Z,16.49
2016-09-13T02:42:04.687Z,16.43
2016-09-13T02:43:07.119Z,16.36
2016-09-13T02:44:06.197Z,16.28
2016-09-13T02:45:07.538Z,16.24
2016-09-13T02:46:05.663Z,16.16
2016-09-13T02:47:06.194Z,16.17
2016-09-13T02:48:06.384Z,16.23
2016-09-13T02:49:06.281Z,16.17
2016-09-13T02:50:04.425Z,16.16
2016-09-13T02:51:06.981Z,16.02
2016-09-13T02:52:05.997Z,16.04
2016-09-13T02:53:06.198Z,15.88
2016-09-13T02:54:06.365Z,15.79
2016-09-13T02:55:05.796Z,15.84
2016-09-13T02:56:05.055Z,15.91
2016-09-13T02:57:07.903Z,15.98
2016-09-13T02:58:06.467Z,16.04
2016-09-13T02:59:04.991Z,16.02
2016-09-13T03:00:05.939Z,16.09
2016-09-13T03:01:06.887Z,16.1
2016-09-13T03:02:07.404Z,16.1
2016-09-13T03:03:05.821Z,16.08
2016-09-13T03:04:07.019Z,16.13
2016-09-13T03:05:06.084Z,16.2
2016-09-13T03:06:05.923Z,16.08
2016-09-13T03:07:05.439Z,16.01
2016-09-13T03:08:06.954Z,16.04
2016-09-13T03:09:07.144Z,16
2016-09-13T03:10:06.939Z,16.01
2016-09-13T03:11:05.047Z,16.05
2016-09-13T03:12:06.105Z,16.02
2016-09-13T03:13:08.544Z,16.05
2016-09-13T03:14:06.253Z,16.02
2016-09-13T03:15:05.396Z,16.15
2016-09-13T03:16:06.021Z,16.05
2016-09-13T03:17:06.204Z,16.09
2016-09-13T03:18:06.675Z,16.01
2016-09-13T03:19:06.006Z,16.08
2016-09-13T03:20:06.132Z,16.02
2016-09-13T03:21:06.482Z,16.02
2016-09-13T03:22:06.148Z,16.01
2016-09-13T03:23:06.008Z,15.98
2016-09-13T03:24:05.286Z,15.88
2016-09-13T03:25:07.092Z,15.94
2016-09-13T03:26:05.848Z,15.92
2016-09-13T03:27:05.332Z,16
2016-09-13T03:28:07.555Z,15.98
2016-09-13T03:29:06.626Z,15.92
2016-09-13T03:30:06.978Z,15.75
2016-09-13T03:31:06.195Z,15.73
2016-09-13T03:32:05.910Z,15.73
2016-09-13T03:33:06.596Z,15.75
2016-09-13T03:34:06.144Z,15.76
2016-09-13T03:35:06.689Z,15.75
2016-09-13T03:36:07.868Z,15.79
2016-09-13T03:37:06.746Z,15.88
2016-09-13T03:38:06.156Z,15.79
2016-09-13T03:39:07.395Z,15.79
2016-09-13T03:40:07.218Z,15.82
2016-09-13T03:41:07.299Z,15.91
2016-09-13T03:42:07.707Z,15.88
2016-09-13T03:43:06.625Z,15.92
2016-09-13T03:44:05.879Z,15.95
2016-09-13T03:45:08.257Z,15.98
2016-09-13T03:46:07.578Z,15.95
2016-09-13T03:47:06.832Z,15.94
2016-09-13T03:48:06.747Z,15.92
2016-09-13T03:49:07.932Z,15.9
2016-09-13T03:50:06.204Z,15.83
2016-09-13T03:51:09.147Z,15.83
2016-09-13T03:52:08.320Z,15.86
2016-09-13T03:53:07.733Z,15.9
2016-09-13T03:54:08.256Z,15.82
2016-09-13T03:55:07.763Z,15.91
2016-09-13T03:56:06.974Z,15.84
2016-09-13T03:57:06.151Z,15.76
2016-09-13T03:58:07.276Z,15.77
2016-09-13T03:59:06.865Z,15.84
2016-09-13T04:00:07.684Z,15.91
2016-09-13T04:01:08.297Z,15.75
2016-09-13T04:02:07.873Z,15.65
2016-09-13T04:03:06.997Z,15.65
2016-09-13T04:04:07.658Z,15.58
2016-09-13T04:05:07.426Z,15.64
2016-09-13T04:06:06.568Z,15.59
2016-09-13T04:07:06.035Z,15.57
2016-09-13T04:08:06.801Z,15.43
2016-09-13T04:09:08.457Z,15.4
2016-09-13T04:10:08.050Z,15.52
2016-09-13T04:11:07.672Z,15.51
2016-09-13T04:12:09.244Z,15.37
2016-09-13T04:13:08.162Z,15.37
2016-09-13T04:14:07.029Z,15.44
2016-09-13T04:15:07.586Z,15.47
2016-09-13T04:16:08.693Z,15.49
2016-09-13T04:17:07.921Z,15.47
2016-09-13T04:18:08.436Z,15.51
2016-09-13T04:19:08.231Z,15.49
2016-09-13T04:20:07.371Z,15.54
2016-09-13T04:21:08.383Z,15.52
2016-09-13T04:22:08.547Z,15.44
2016-09-13T04:23:06.867Z,15.43
2016-09-13T04:24:07.176Z,15.44
2016-09-13T04:25:07.520Z,15.37
2016-09-13T04:26:08.380Z,15.28
2016-09-13T04:27:07.822Z,15.25
2016-09-13T04:28:07.825Z,15.35
2016-09-13T04:29:09.061Z,15.43
2016-09-13T04:30:08.603Z,15.36
2016-09-13T04:31:08.253Z,15.39
2016-09-13T04:32:10.223Z,15.36
2016-09-13T04:33:09.191Z,15.4
2016-09-13T04:34:08.586Z,15.39
2016-09-13T04:35:07.677Z,15.43
2016-09-13T04:36:08.329Z,15.51
2016-09-13T04:37:07.797Z,15.4
2016-09-13T04:38:06.879Z,15.4
2016-09-13T04:39:06.929Z,15.43
2016-09-13T04:40:08.969Z,15.33
2016-09-13T04:41:09.091Z,15.36
2016-09-13T04:42:08.599Z,15.43
2016-09-13T04:43:08.295Z,15.43
2016-09-13T04:44:08.792Z,15.36
2016-09-13T04:45:07.993Z,15.4
2016-09-13T04:46:08.105Z,15.43
2016-09-13T04:47:08.584Z,15.42
2016-09-13T04:48:07.090Z,15.35
2016-09-13T04:49:08.016Z,15.37
2016-09-13T04:50:07.969Z,15.37
2016-09-13T04:51:09.977Z,15.31
2016-09-13T04:52:08.387Z,15.21
2016-09-13T04:53:08.230Z,15.14
2016-09-13T04:54:08.531Z,15.11
2016-09-13T04:55:07.980Z,15.31
2016-09-13T04:56:08.732Z,15.27
2016-09-13T04:57:08.530Z,15.17
2016-09-13T04:58:08.514Z,15.04
2016-09-13T04:59:07.694Z,15.24
2016-09-13T05:00:08.488Z,15.28
2016-09-13T05:01:07.878Z,15.39
2016-09-13T05:02:08.698Z,15.37
2016-09-13T05:03:08.086Z,15.37
2016-09-13T05:04:09.531Z,15.33
2016-09-13T05:05:08.636Z,15.43
2016-09-13T05:06:08.252Z,15.35
2016-09-13T05:07:09.823Z,15.46
2016-09-13T05:08:09.251Z,15.37
2016-09-13T05:09:09.777Z,15.29
2016-09-13T05:10:07.868Z,15.42
2016-09-13T05:11:08.459Z,15.4
2016-09-13T05:12:09.212Z,15.37
2016-09-13T05:13:08.473Z,15.4
2016-09-13T05:14:10.213Z,15.39
2016-09-13T05:15:08.388Z,15.4
2016-09-13T05:16:08.320Z,15.46
2016-09-13T05:17:09.092Z,15.52
2016-09-13T05:18:08.315Z,15.46
2016-09-13T05:19:08.643Z,15.27
2016-09-13T05:20:08.459Z,15.29
2016-09-13T05:21:09.057Z,15.27
2016-09-13T05:22:07.951Z,15.35
2016-09-13T05:23:08.298Z,15.39
2016-09-13T05:24:09.496Z,15.36
2016-09-13T05:25:09.689Z,15.39
2016-09-13T05:26:09.012Z,15.46
2016-09-13T05:27:08.603Z,15.46
2016-09-13T05:28:09.076Z,15.52
2016-09-13T05:29:09.467Z,15.39
2016-09-13T05:30:08.162Z,15.37
2016-09-13T05:31:09.071Z,15.51
2016-09-13T05:32:09.870Z,15.37
2016-09-13T05:33:09.491Z,15.47
2016-09-13T05:34:09.318Z,15.4
2016-09-13T05:35:10.084Z,15.4
2016-09-13T05:36:08.499Z,15.43
2016-09-13T05:37:09.840Z,15.44
2016-09-13T05:38:09.882Z,15.49
2016-09-13T05:39:08.495Z,15.55
2016-09-13T05:40:09.407Z,15.51
2016-09-13T05:41:08.532Z,15.49
2016-09-13T05:42:08.674Z,15.57
2016-09-13T05:43:08.282Z,15.59
2016-09-13T05:44:09.608Z,15.62
2016-09-13T05:45:08.461Z,15.73
2016-09-13T05:46:09.422Z,15.79
2016-09-13T05:47:08.653Z,15.76
2016-09-13T05:48:08.846Z,15.91
2016-09-13T05:49:09.416Z,15.76
2016-09-13T05:50:08.873Z,15.62
2016-09-13T05:51:08.336Z,15.64
2016-09-13T05:52:09.997Z,15.59
2016-09-13T05:53:09.819Z,15.61
2016-09-13T05:54:09.581Z,15.59
2016-09-13T05:55:09.091Z,15.75
2016-09-13T05:56:08.779Z,15.94
2016-09-13T05:57:08.464Z,15.98
2016-09-13T05:58:08.665Z,16.01
2016-09-13T06:00:50.420Z,-39.99
2016-09-13T06:01:51.673Z,-39.99
2016-09-13T06:02:50.988Z,-39.99
2016-09-13T06:03:49.662Z,-39.99
2016-09-13T06:04:52.073Z,-39.99
2016-09-13T06:05:50.740Z,-39.99
2016-09-13T06:06:51.037Z,-39.99
2016-09-13T06:07:51.257Z,-39.99
2016-09-13T06:08:50.819Z,-39.99
2016-09-13T06:09:51.726Z,-39.99
2016-09-13T06:10:51.330Z,-39.99
2016-09-13T06:11:51.671Z,-39.99
2016-09-13T06:12:51.297Z,-39.99
2016-09-13T06:13:51.407Z,-39.99
2016-09-13T06:14:50.873Z,-39.99
2016-09-13T06:15:52.826Z,-39.99
2016-09-13T06:16:51.079Z,-39.99
2016-09-13T06:17:50.661Z,-39.99
2016-09-13T06:18:51.520Z,-39.99
2016-09-13T06:19:51.309Z,-39.99
2016-09-13T06:20:51.181Z,-39.99
2016-09-13T06:21:52.478Z,-39.99
2016-09-13T06:22:51.862Z,-39.99
2016-09-13T06:23:51.678Z,-39.99
2016-09-13T06:24:51.437Z,-39.99
2016-09-13T06:25:51.456Z,-39.99
2016-09-13T06:26:52.596Z,-39.99
2016-09-13T06:27:52.010Z,-39.99
2016-09-13T06:28:51.342Z,-39.99
2016-09-13T06:29:52.901Z,-39.99
2016-09-13T06:30:51.555Z,-39.99
2016-09-13T06:31:52.016Z,-39.99
2016-09-13T06:32:51.770Z,-39.99
2016-09-13T06:33:52.189Z,-39.99
2016-09-13T06:34:51.673Z,-39.99
2016-09-13T06:35:53.011Z,-39.99
2016-09-13T06:36:52.020Z,-39.99
2016-09-13T06:37:52.910Z,-39.99
2016-09-13T06:38:52.475Z,-39.99
2016-09-13T06:39:53.910Z,-39.99
2016-09-13T06:40:52.301Z,-39.99
2016-09-13T06:41:52.161Z,-39.99
2016-09-13T06:42:51.657Z,-39.99
2016-09-13T06:43:51.525Z,-39.99
2016-09-13T06:44:53.166Z,-39.99
2016-09-13T06:45:52.882Z,-39.99
2016-09-13T06:46:52.027Z,-39.99
2016-09-13T06:47:52.060Z,-39.99
2016-09-13T06:48:51.977Z,-39.99
2016-09-13T06:49:51.599Z,-39.99
2016-09-13T06:50:51.840Z,-39.99
2016-09-13T06:51:52.398Z,-39.99
2016-09-13T06:52:52.508Z,-39.99
2016-09-13T06:53:52.221Z,-39.99
2016-09-13T06:54:52.118Z,-39.99
2016-09-13T06:55:52.230Z,-39.99
2016-09-13T06:56:52.699Z,-39.99
2016-09-13T06:57:51.300Z,-39.99
2016-09-13T06:58:54.451Z,-39.99
2016-09-13T06:59:53.036Z,-39.99
2016-09-13T07:00:52.673Z,-39.99
2016-09-13T07:01:52.627Z,-39.99
2016-09-13T07:02:52.142Z,-39.99
2016-09-13T07:03:52.674Z,-39.99
2016-09-13T07:04:51.701Z,-39.99
2016-09-13T07:05:51.841Z,-39.99
2016-09-13T07:06:52.008Z,-39.99
2016-09-13T07:07:51.797Z,-39.99
2016-09-13T07:08:52.750Z,-39.99
2016-09-13T07:09:52.595Z,-39.99
2016-09-13T07:10:52.174Z,-39.99
2016-09-13T07:11:52.918Z,-39.99
2016-09-13T07:12:51.947Z,-39.99
2016-09-13T07:13:52.840Z,-39.99
2016-09-13T07:14:51.867Z,-39.99
2016-09-13T07:15:53.668Z,-39.99
2016-09-13T07:16:52.374Z,-39.99
2016-09-13T07:17:52.590Z,-39.99
2016-09-13T07:18:52.515Z,-39.99
2016-09-13T07:19:52.068Z,-39.99
2016-09-13T07:20:54.061Z,-39.99
2016-09-13T07:21:53.327Z,-39.99
2016-09-13T07:22:52.800Z,-39.99
2016-09-13T07:23:52.834Z,-39.99
2016-09-13T07:24:52.353Z,-39.99
2016-09-13T07:25:52.770Z,-39.99
2016-09-13T07:26:52.158Z,-39.99
2016-09-13T07:27:52.882Z,-39.99
2016-09-13T07:28:52.978Z,-39.99
2016-09-13T07:29:52.434Z,-39.99
2016-09-13T07:30:52.889Z,-39.99
2016-09-13T07:31:53.104Z,-39.99
2016-09-13T07:32:52.738Z,-39.99
2016-09-13T07:33:53.174Z,-39.99
2016-09-13T07:34:54.018Z,-39.99
2016-09-13T07:35:53.978Z,-39.99
2016-09-13T07:36:53.914Z,-39.99
2016-09-13T07:37:54.706Z,-39.99
2016-09-13T07:38:54.066Z,-39.99
2016-09-13T07:39:53.933Z,-39.99
2016-09-13T07:40:52.936Z,-39.99
2016-09-13T07:41:54.329Z,-39.99
2016-09-13T07:42:52.395Z,-39.99
2016-09-13T07:43:53.067Z,-39.99
2016-09-13T07:44:53.295Z,-39.99
2016-09-13T07:45:55.035Z,-39.99
2016-09-13T07:46:53.280Z,-39.99
2016-09-13T07:47:54.807Z,-39.99
2016-09-13T07:48:52.906Z,-39.99
2016-09-13T07:49:52.717Z,-39.99
2016-09-13T07:50:54.020Z,-39.99
2016-09-13T07:51:52.729Z,-39.99
2016-09-13T07:52:54.158Z,-39.99
2016-09-13T07:53:53.849Z,-39.99
2016-09-13T07:54:54.535Z,-39.99
2016-09-13T07:55:53.006Z,-39.99
2016-09-13T07:56:53.458Z,-39.99
2016-09-13T07:57:53.183Z,-39.99
2016-09-13T07:58:54.513Z,-39.99
2016-09-13T07:59:53.212Z,-39.99
2016-09-13T08:00:54.371Z,-39.99
2016-09-13T08:01:53.455Z,-39.99
2016-09-13T08:02:54.465Z,-39.99
2016-09-13T08:03:54.972Z,-39.99
2016-09-13T08:04:52.909Z,-39.99
2016-09-13T08:05:54.372Z,-39.99
2016-09-13T08:06:53.955Z,-39.99
2016-09-13T08:07:54.047Z,-39.99
2016-09-13T08:08:54.390Z,-39.99
2016-09-13T08:09:54.411Z,-39.99
2016-09-13T08:10:53.527Z,-39.99
2016-09-13T08:11:57.380Z,-39.99
2016-09-13T08:12:54.019Z,-39.99
2016-09-13T08:13:54.426Z,-39.99
2016-09-13T08:14:54.284Z,-39.99
2016-09-13T08:15:54.316Z,-39.99
2016-09-13T08:16:53.875Z,-39.99
2016-09-13T08:17:54.128Z,-39.99
2016-09-13T08:18:54.396Z,-39.99
2016-09-13T08:19:53.043Z,-39.99
2016-09-13T08:20:53.964Z,-39.99
2016-09-13T08:21:54.949Z,-39.99
2016-09-13T08:22:53.435Z,-39.99
2016-09-13T08:23:54.723Z,-39.99
2016-09-13T08:24:53.919Z,-39.99
2016-09-13T08:25:54.379Z,-39.99
2016-09-13T08:26:55.182Z,-39.99
2016-09-13T08:27:55.317Z,-39.99
2016-09-13T08:28:54.320Z,-39.99
2016-09-13T08:29:54.680Z,-39.99
2016-09-13T08:30:54.532Z,-39.99
2016-09-13T08:31:55.386Z,-39.99
2016-09-13T08:32:54.283Z,-39.99
2016-09-13T08:33:56.518Z,-39.99
2016-09-13T08:34:55.516Z,-39.99
2016-09-13T08:35:54.701Z,-39.99
2016-09-13T08:36:54.696Z,-39.99
2016-09-13T08:37:54.636Z,-39.99
2016-09-13T08:38:55.516Z,-39.99
2016-09-13T08:39:54.260Z,-39.99
2016-09-13T08:40:54.732Z,-39.99
2016-09-13T08:41:54.739Z,-39.99
2016-09-13T08:42:56.396Z,-39.99
2016-09-13T08:43:56.538Z,-39.99
2016-09-13T08:44:55.208Z,-39.99
2016-09-13T08:45:54.549Z,-39.99
2016-09-13T08:46:54.657Z,-39.99
2016-09-13T08:47:57.578Z,-39.99
2016-09-13T08:48:54.711Z,-39.99
2016-09-13T08:49:55.643Z,-39.99
2016-09-13T08:50:55.073Z,-39.99
2016-09-13T08:51:55.149Z,-39.99
2016-09-13T08:52:55.183Z,-39.99
2016-09-13T08:53:55.109Z,-39.99
2016-09-13T08:54:55.159Z,-39.99
2016-09-13T08:55:54.685Z,-39.99
2016-09-13T08:56:54.787Z,-39.99
2016-09-13T08:57:54.582Z,-39.99
2016-09-13T08:58:56.612Z,-39.99
2016-09-13T08:59:56.214Z,-39.99
2016-09-13T09:00:55.107Z,-39.99
2016-09-13T09:01:55.553Z,-39.99
2016-09-13T09:02:54.529Z,-39.99
2016-09-13T09:03:56.522Z,-39.99
2016-09-13T09:04:55.685Z,-39.99
2016-09-13T09:05:55.051Z,-39.99
2016-09-13T09:06:55.082Z,-39.99
2016-09-13T09:07:55.029Z,-39.99
2016-09-13T09:08:54.548Z,-39.99
2016-09-13T09:09:56.548Z,-39.99
2016-09-13T09:10:54.868Z,-39.99
2016-09-13T09:11:55.478Z,-39.99
2016-09-13T09:12:55.631Z,-39.99
2016-09-13T09:13:54.981Z,-39.99
2016-09-13T09:14:55.025Z,-39.99
2016-09-13T09:15:54.980Z,-39.99
2016-09-13T09:16:55.846Z,-39.99
2016-09-13T09:17:55.550Z,-39.99
2016-09-13T09:18:56.723Z,-39.99
2016-09-13T09:19:56.693Z,-39.99
2016-09-13T09:20:56.807Z,-39.99
2016-09-13T09:21:55.751Z,-39.99
2016-09-13T09:22:55.007Z,-39.99
2016-09-13T09:23:56.877Z,-39.99
2016-09-13T09:24:56.483Z,-39.99
2016-09-13T09:25:55.492Z,-39.99
2016-09-13T09:26:55.171Z,-39.99
2016-09-13T09:27:56.600Z,-39.99
2016-09-13T09:28:57.379Z,-39.99
2016-09-13T09:29:56.684Z,-39.99
2016-09-13T09:30:56.551Z,-39.99
2016-09-13T09:31:57.243Z,-39.99
2016-09-13T09:32:55.431Z,-39.99
2016-09-13T09:33:56.559Z,-39.99
2016-09-13T09:34:56.982Z,-39.99
2016-09-13T09:35:56.965Z,-39.99
2016-09-13T09:36:58.834Z,-39.99
2016-09-13T09:37:55.777Z,-39.99
2016-09-13T09:38:56.367Z,-39.99
2016-09-13T09:39:55.500Z,-39.99
2016-09-13T09:40:55.762Z,-39.99
2016-09-13T09:41:56.689Z,-39.99
2016-09-13T09:42:57.327Z,-39.99
2016-09-13T09:43:57.271Z,-39.99
2016-09-13T09:44:56.692Z,-39.99
2016-09-13T09:45:57.505Z,-39.99
2016-09-13T09:46:56.286Z,-39.99
2016-09-13T09:47:57.253Z,-39.99
2016-09-13T09:48:55.989Z,-39.99
2016-09-13T09:49:56.664Z,-39.99
2016-09-13T09:50:57.274Z,-39.99
2016-09-13T09:51:56.980Z,-39.99
2016-09-13T09:52:59.591Z,-39.99
2016-09-13T09:53:56.745Z,-39.99
2016-09-13T09:54:57.337Z,-39.99
2016-09-13T09:55:56.321Z,-39.99
2016-09-13T09:56:57.453Z,-39.99
2016-09-13T09:57:58.696Z,-39.99
2016-09-13T09:58:56.950Z,-39.99
2016-09-13T09:59:56.656Z,-39.99
2016-09-13T10:00:57.388Z,-39.99
2016-09-13T10:01:56.886Z,-39.99
2016-09-13T10:02:57.474Z,-39.99
2016-09-13T10:03:57.890Z,-39.99
2016-09-13T10:04:57.116Z,-39.99
2016-09-13T10:05:57.721Z,-39.99
2016-09-13T10:06:57.336Z,-39.99
2016-09-13T10:07:57.530Z,-39.99
2016-09-13T10:08:57.161Z,-39.99
2016-09-13T10:09:58.395Z,-39.99
2016-09-13T10:10:57.787Z,-39.99
2016-09-13T10:11:57.999Z,-39.99
2016-09-13T10:12:57.429Z,-39.99
2016-09-13T10:13:58.400Z,-39.99
2016-09-13T10:14:57.100Z,-39.99
2016-09-13T10:15:58.617Z,-39.99
2016-09-13T10:16:57.908Z,-39.99
2016-09-13T10:17:57.882Z,-39.99
2016-09-13T10:18:57.932Z,-39.99
2016-09-13T10:19:57.762Z,-39.99
2016-09-13T10:20:57.761Z,-39.99
2016-09-13T10:21:59.175Z,-39.99
2016-09-13T10:22:58.442Z,-39.99
2016-09-13T10:23:57.527Z,-39.99
2016-09-13T10:24:58.056Z,-39.99
2016-09-13T10:25:57.484Z,-39.99
2016-09-13T10:26:58.022Z,-39.99
2016-09-13T10:27:57.830Z,-39.99
2016-09-13T10:28:57.637Z,-39.99
2016-09-13T10:29:57.636Z,-39.99
2016-09-13T10:30:57.707Z,-39.99
2016-09-13T10:31:57.993Z,-39.99
2016-09-13T10:32:58.963Z,-39.99
2016-09-13T10:33:57.828Z,-39.99
2016-09-13T10:34:59.781Z,-39.99
2016-09-13T10:35:58.747Z,-39.99
2016-09-13T10:36:58.671Z,-39.99
2016-09-13T10:37:57.842Z,-39.99
2016-09-13T10:38:58.732Z,-39.99
2016-09-13T10:39:57.966Z,-39.99
2016-09-13T10:40:58.892Z,-39.99
2016-09-13T10:41:58.044Z,-39.99
2016-09-13T10:42:58.665Z,-39.99
2016-09-13T10:43:58.254Z,-39.99
2016-09-13T10:44:58.718Z,-39.99
2016-09-13T10:46:00.274Z,-39.99
2016-09-13T10:46:59.566Z,-39.99
2016-09-13T10:47:58.000Z,-39.99
2016-09-13T10:48:58.081Z,-39.99
2016-09-13T10:49:58.597Z,-39.99
2016-09-13T10:50:58.014Z,-39.99
2016-09-13T10:51:58.721Z,-39.99
2016-09-13T10:52:58.562Z,-39.99
2016-09-13T10:53:59.943Z,-39.99
2016-09-13T10:54:58.755Z,-39.99
2016-09-13T10:55:58.749Z,-39.99
2016-09-13T10:56:58.696Z,-39.99
2016-09-13T10:57:58.563Z,-39.99
2016-09-13T10:58:58.860Z,-39.99
2016-09-13T10:59:59.629Z,-39.99
2016-09-13T11:00:58.716Z,-39.99
2016-09-13T11:01:58.641Z,-39.99
2016-09-13T11:02:58.216Z,-39.99
2016-09-13T11:03:58.055Z,-39.99
2016-09-13T11:04:58.858Z,-39.99
2016-09-13T11:05:59.671Z,-39.99
2016-09-13T11:06:58.070Z,-39.99
2016-09-13T11:08:01.398Z,-39.99
2016-09-13T11:09:00.412Z,-39.99
2016-09-13T11:10:00.371Z,-39.99
2016-09-13T11:10:59.838Z,-39.99
2016-09-13T11:11:59.190Z,-39.99
2016-09-13T11:12:59.117Z,-39.99
2016-09-13T11:13:58.999Z,-39.99
2016-09-13T11:15:00.418Z,-39.99
2016-09-13T11:16:00.302Z,-39.99
2016-09-13T11:17:00.554Z,-39.99
2016-09-13T11:18:00.120Z,-39.99
2016-09-13T11:18:59.552Z,-39.99
2016-09-13T11:19:59.346Z,-39.99
2016-09-13T11:20:59.866Z,-39.99
2016-09-13T11:22:00.183Z,-39.99
2016-09-13T11:22:59.070Z,-39.99
2016-09-13T11:23:59.700Z,-39.99
2016-09-13T11:25:00.384Z,-39.99
2016-09-13T11:25:59.257Z,-39.99
2016-09-13T11:27:00.929Z,-39.99
2016-09-13T11:27:59.659Z,-39.99
2016-09-13T11:29:00.570Z,-39.99
2016-09-13T11:29:59.987Z,-39.99
2016-09-13T11:31:00.007Z,-39.99
2016-09-13T11:31:59.266Z,-39.99
2016-09-13T11:32:59.939Z,-39.99
2016-09-13T11:34:00.078Z,-39.99
2016-09-13T11:35:00.057Z,-39.99
2016-09-13T11:36:00.439Z,-39.99
2016-09-13T11:37:01.273Z,-39.99
2016-09-13T11:38:00.652Z,-39.99
2016-09-13T11:39:00.106Z,-39.99
2016-09-13T11:39:59.382Z,-39.99
2016-09-13T11:41:00.246Z,-39.99
2016-09-13T11:42:00.845Z,-39.99
2016-09-13T11:43:00.309Z,-39.99
2016-09-13T11:44:01.440Z,-39.99
2016-09-13T11:45:00.445Z,-39.99
2016-09-13T11:46:00.866Z,-39.99
2016-09-13T11:47:00.260Z,-39.99
2016-09-13T11:48:01.770Z,-39.99
2016-09-13T11:49:00.564Z,-39.99
2016-09-13T11:50:00.516Z,-39.99
2016-09-13T11:50:59.956Z,-39.99
2016-09-13T11:52:02.974Z,-39.99
2016-09-13T11:53:00.378Z,-39.99
2016-09-13T11:54:00.836Z,-39.99
2016-09-13T11:55:00.583Z,-39.99
2016-09-13T11:56:00.793Z,-39.99
2016-09-13T11:57:00.494Z,-39.99
2016-09-13T11:58:00.643Z,-39.99
2016-09-13T11:59:01.502Z,-39.99
2016-09-13T12:00:01.874Z,-39.99
2016-09-13T12:01:00.643Z,-39.99
2016-09-13T12:02:00.907Z,-39.99
2016-09-13T12:03:00.759Z,-39.99
2016-09-13T12:04:00.949Z,-39.99
2016-09-13T12:05:01.861Z,-39.99
2016-09-13T12:06:01.060Z,-39.99
2016-09-13T12:07:00.983Z,-39.99
2016-09-13T12:08:02.183Z,-39.99
2016-09-13T12:09:02.577Z,-39.99
2016-09-13T12:10:01.581Z,-39.99
2016-09-13T12:11:01.555Z,-39.99
2016-09-13T12:12:00.854Z,-39.99
2016-09-13T12:13:03.282Z,-39.99
2016-09-13T12:14:02.153Z,-39.99
2016-09-13T12:15:01.867Z,-39.99
2016-09-13T12:16:02.136Z,-39.99
2016-09-13T12:17:02.314Z,-39.99
2016-09-13T12:18:01.399Z,-39.99
2016-09-13T12:19:02.484Z,-39.99
2016-09-13T12:20:02.693Z,-39.99
2016-09-13T12:21:02.391Z,-39.99
2016-09-13T12:22:02.387Z,-39.99
2016-09-13T12:23:01.335Z,-39.99
2016-09-13T12:24:02.657Z,-39.99
2016-09-13T12:25:01.064Z,-39.99
2016-09-13T12:26:01.950Z,-39.99
2016-09-13T12:27:02.504Z,-39.99
2016-09-13T12:28:01.341Z,-39.99
2016-09-13T12:29:01.313Z,-39.99
2016-09-13T12:30:02.997Z,-39.99
2016-09-13T12:31:02.710Z,-39.99
2016-09-13T12:32:03.466Z,-39.99
2016-09-13T12:33:03.233Z,-39.99
2016-09-13T12:34:02.349Z,-39.99
2016-09-13T12:35:02.781Z,-39.99
2016-09-13T12:36:01.492Z,-39.99
2016-09-13T12:37:02.568Z,-39.99
2016-09-13T12:38:01.597Z,-39.99
2016-09-13T12:39:02.522Z,-39.99
2016-09-13T12:40:03.221Z,-39.99
2016-09-13T12:41:02.288Z,-39.99
2016-09-13T12:42:03.887Z,-39.99